createdAt,value
2022-09-10T00:02:23.997Z,1005.67
2022-09-10T00:08:43.976Z,1005.69
2022-09-10T00:15:07.029Z,1005.67
2022-09-10T00:21:27.032Z,1005.67
2022-09-10T00:27:49.984Z,1005.69
2022-09-10T00:34:10.017Z,1005.72
2022-09-10T00:40:33.036Z,1005.76
2022-09-10T00:46:52.987Z,1005.8
2022-09-10T00:53:16.009Z,1005.78
2022-09-10T00:59:35.985Z,1005.74
2022-09-10T01:05:59.000Z,1005.71
2022-09-10T01:12:19.058Z,1005.71
2022-09-10T01:18:42.015Z,1005.69
2022-09-10T01:25:02.063Z,1005.67
2022-09-10T01:31:25.018Z,1005.67
2022-09-10T01:37:44.974Z,1005.69
2022-09-10T01:44:08.022Z,1005.71
2022-09-10T01:50:27.984Z,1005.67
2022-09-10T01:56:51.023Z,1005.61
2022-09-10T02:03:11.002Z,1005.57
2022-09-10T02:09:34.024Z,1005.51
2022-09-10T02:15:53.964Z,1005.4
2022-09-10T02:22:16.986Z,1005.4
2022-09-10T02:28:37.014Z,1005.4
2022-09-10T02:35:00.018Z,1005.4
2022-09-10T02:41:20.010Z,1005.49
2022-09-10T02:47:43.036Z,1005.49
2022-09-10T02:54:02.995Z,1005.49
2022-09-10T03:00:25.976Z,1005.49
2022-09-10T03:06:46.018Z,1005.4
2022-09-10T03:13:09.006Z,1005.38
2022-09-10T03:19:29.011Z,1005.4
2022-09-10T03:41:42.005Z,1005.33
2022-09-10T03:48:04.982Z,1005.25
2022-09-10T03:54:24.969Z,1005.29
2022-09-10T04:00:48.072Z,1005.29
2022-09-10T04:07:07.974Z,1005.29
2022-09-10T04:13:30.998Z,1005.33
2022-09-10T04:19:51.074Z,1005.38
2022-09-10T04:26:14.006Z,1005.4
2022-09-10T04:32:33.958Z,1005.38
2022-09-10T04:38:57.003Z,1005.4
2022-09-10T04:45:16.999Z,1005.49
2022-09-10T04:51:40.002Z,1005.51
2022-09-10T04:57:59.997Z,1005.53
2022-09-10T05:04:22.997Z,1005.61
2022-09-10T05:10:43.005Z,1005.65
2022-09-10T05:17:06.021Z,1005.65
2022-09-10T05:23:26.005Z,1005.65
2022-09-10T05:29:48.998Z,1005.65
2022-09-10T05:36:09.023Z,1005.67
2022-09-10T05:42:31.986Z,1005.67
2022-09-10T05:48:51.991Z,1005.71
2022-09-10T05:55:15.013Z,1005.78
2022-09-10T06:01:34.985Z,1005.84
2022-09-10T06:07:57.981Z,1005.84
2022-09-10T06:14:18.003Z,1005.86
2022-09-10T06:20:40.977Z,1005.88
2022-09-10T06:27:00.988Z,1005.92
2022-09-10T06:33:24.035Z,1005.98
2022-09-10T06:39:44.007Z,1006.02
2022-09-10T06:46:15.062Z,1006.08
2022-09-10T06:52:27.065Z,1006.1
2022-09-10T06:58:50.012Z,1006.12
2022-09-10T07:05:15.984Z,1006.16
2022-09-10T07:11:41.483Z,1006.19
2022-09-10T07:17:58.989Z,1006.25
2022-09-10T07:24:22.016Z,1006.29
2022-09-10T07:30:42.041Z,1006.33
2022-09-10T07:37:05.040Z,1006.37
2022-09-10T07:43:24.980Z,1006.39
2022-09-10T07:49:48.007Z,1006.43
2022-09-10T07:56:08.006Z,1006.47
2022-09-10T08:02:31.007Z,1006.49
2022-09-10T08:08:51.093Z,1006.55
2022-09-10T08:15:13.968Z,1006.57
2022-09-10T08:21:34.020Z,1006.55
2022-09-10T08:27:57.027Z,1006.55
2022-09-10T08:34:16.983Z,1006.53
2022-09-10T08:40:40.016Z,1006.55
2022-09-10T08:58:24.978Z,1006.53
2022-09-10T09:04:47.972Z,1006.55
2022-09-10T09:11:07.985Z,1006.59
2022-09-10T09:17:31.037Z,1006.61
2022-09-10T09:24:09.676Z,1006.65
2022-09-10T09:30:14.035Z,1006.72
2022-09-10T09:36:34.018Z,1006.76
2022-09-10T09:42:57.000Z,1006.78
2022-09-10T09:49:16.990Z,1006.76
2022-09-10T09:55:40.034Z,1006.74
2022-09-10T10:02:00.054Z,1006.74
2022-09-10T10:08:22.999Z,1006.72
2022-09-10T10:14:43.053Z,1006.72
2022-09-10T10:21:06.001Z,1006.7
2022-09-10T10:27:26.014Z,1006.66
2022-09-10T10:33:49.055Z,1006.63
2022-09-10T10:40:09.108Z,1006.63
2022-09-10T10:46:32.065Z,1006.61
2022-09-10T10:52:52.054Z,1006.61
2022-09-10T10:59:15.013Z,1006.63
2022-09-10T11:05:34.984Z,1006.57
2022-09-10T11:11:58.036Z,1006.55
2022-09-10T11:18:18.023Z,1006.57
2022-09-10T11:24:41.016Z,1006.53
2022-09-10T11:31:01.067Z,1006.47
2022-09-10T11:37:24.026Z,1006.39
2022-09-10T11:43:44.004Z,1006.37
2022-09-10T11:50:07.013Z,1006.35
2022-09-10T11:56:27.052Z,1006.39
2022-09-10T12:02:50.022Z,1006.43
2022-09-10T12:09:10.064Z,1006.45
2022-09-10T12:15:32.999Z,1006.47
2022-09-10T12:21:53.030Z,1006.45
2022-09-10T12:28:16.031Z,1006.45
2022-09-10T12:34:36.012Z,1006.45
2022-09-10T12:40:59.051Z,1006.39
2022-09-10T12:47:19.006Z,1006.39
2022-09-10T12:53:42.014Z,1006.41
2022-09-10T13:00:02.013Z,1006.39
2022-09-10T13:06:25.040Z,1006.33
2022-09-10T13:12:44.991Z,1006.29
2022-09-10T13:19:08.012Z,1006.18
2022-09-10T13:25:28.028Z,1006.21
2022-09-10T13:31:51.058Z,1006.27
2022-09-10T13:38:10.978Z,1006.35
2022-09-10T13:44:34.032Z,1006.51
2022-09-10T13:50:54.003Z,1006.57
2022-09-10T14:08:47.513Z,1006.51
2022-09-10T14:15:06.971Z,1006.55
2022-09-10T14:21:29.986Z,1006.59
2022-09-10T14:27:53.502Z,1006.59
2022-09-10T14:34:12.996Z,1006.59
2022-09-10T14:40:32.992Z,1006.61
2022-09-10T14:46:56.006Z,1006.61
2022-09-10T14:53:15.992Z,1006.61
2022-09-10T14:59:39.994Z,1006.57
2022-09-10T15:06:00.015Z,1006.57
2022-09-10T15:12:23.224Z,1006.57
2022-09-10T15:18:42.981Z,1006.53
2022-09-10T15:25:09.941Z,1006.49
2022-09-10T15:31:30.787Z,1006.45
2022-09-10T15:37:50.288Z,1006.43
2022-09-10T15:44:10.024Z,1006.39
2022-09-10T15:50:32.977Z,1006.41
2022-09-10T15:56:52.986Z,1006.41
2022-09-10T16:03:16.002Z,1006.45
2022-09-10T16:09:36.001Z,1006.43
2022-09-10T16:15:59.015Z,1006.45
2022-09-10T16:22:20.739Z,1006.47
2022-09-10T16:28:42.049Z,1006.51
2022-09-10T16:35:01.979Z,1006.55
2022-09-10T16:41:25.019Z,1006.57
2022-09-10T16:47:44.999Z,1006.57
2022-09-10T16:54:07.975Z,1006.65
2022-09-10T17:00:28.250Z,1006.66
2022-09-10T17:06:51.291Z,1006.74
2022-09-10T17:13:11.310Z,1006.72
2022-09-10T17:19:33.997Z,1006.82
2022-09-10T17:25:53.987Z,1006.82
2022-09-10T17:32:17.008Z,1006.9
2022-09-10T17:38:37.005Z,1006.94
2022-09-10T17:45:00.010Z,1006.96
2022-09-10T17:51:19.977Z,1006.98
2022-09-10T17:57:43.022Z,1007.04
2022-09-10T18:04:03.013Z,1007.08
2022-09-10T18:10:25.980Z,1007.04
2022-09-10T18:16:46.020Z,1007.12
2022-09-10T18:23:09.088Z,1007.21
2022-09-10T18:29:28.990Z,1007.31
2022-09-10T18:35:52.062Z,1007.43
2022-09-10T18:42:12.014Z,1007.52
2022-09-10T18:48:35.098Z,1007.72
2022-09-10T18:54:54.997Z,1007.84
2022-09-10T19:01:18.093Z,1008.08
2022-09-10T19:23:26.999Z,1008.49
2022-09-10T19:29:50.100Z,1008.59
2022-09-10T19:36:10.034Z,1008.71
2022-09-10T19:42:33.026Z,1008.79
2022-09-10T19:48:52.990Z,1008.83
2022-09-10T19:55:16.002Z,1008.88
2022-09-10T20:01:36.153Z,1008.9
2022-09-10T20:07:59.021Z,1008.94
2022-09-10T20:14:18.997Z,1009
2022-09-10T20:20:41.993Z,1009.04
2022-09-10T20:27:01.966Z,1009.06
2022-09-10T20:33:25.005Z,1009.14
2022-09-10T20:39:45.034Z,1009.18
2022-09-10T20:46:08.037Z,1009.26
2022-09-10T20:52:27.977Z,1009.33
2022-09-10T20:58:50.996Z,1009.33
2022-09-10T21:05:10.996Z,1009.43
2022-09-10T21:11:34.037Z,1009.51
2022-09-10T21:17:54.086Z,1009.57
2022-09-10T21:24:17.100Z,1009.63
2022-09-10T21:30:36.962Z,1009.67
2022-09-10T21:37:00.021Z,1009.75
2022-09-10T21:43:20.044Z,1009.8
2022-09-10T21:49:42.996Z,1009.88
2022-09-10T21:56:03.008Z,1009.98
2022-09-10T22:20:21.007Z,1010.24
2022-09-10T22:26:40.971Z,1010.24
2022-09-10T22:33:04.008Z,1010.22
2022-09-10T22:39:24.041Z,1010.27
2022-09-10T22:45:47.025Z,1010.37
2022-09-10T22:52:07.000Z,1010.39
2022-09-10T22:58:30.068Z,1010.41
2022-09-10T23:04:49.974Z,1010.49
2022-09-10T23:11:13.037Z,1010.65
2022-09-10T23:17:33.004Z,1010.77
2022-09-10T23:23:55.985Z,1010.83
2022-09-10T23:30:16.001Z,1010.83
2022-09-10T23:36:39.006Z,1010.89
2022-09-10T23:42:58.974Z,1010.91
2022-09-10T23:49:22.028Z,1010.97
2022-09-10T23:55:41.999Z,1011.03
